Flight Track Log - Related Links

Times and Time Zones

All times are in EST time to prevent confusion due to time zone crossing. See the N2827N flight status page for this flight to view local times or setup timezone preferences in your user account.

Time Position Orientation Groundspeed Altitude Reporting Facility
EST Latitude Longitude Course Direction KTS MPH feet Rate Location/Type
Mon 09:06:00 AM 30.1905 -84.2093 144° Southeast  Level Estimated
Mon 09:07:00 AM 30.1657 -84.1730 128° Southeast  Level FlightAware
Mon 09:08:00 AM 30.1312 -84.1497 146° Southeast  Level Estimated
Mon 09:09:00 AM 30.0989 -84.1225 144° Southeast  Level FlightAware
Mon 09:10:00 AM 30.0666 -84.0953 144° Southeast  Level FlightAware
Mon 09:11:00 AM 30.0343 -84.0682 144° Southeast  Level FlightAware
Mon 09:12:00 AM 30.0019 -84.0411 144° Southeast  Level FlightAware
Mon 09:13:00 AM 29.9696 -84.0140 144° Southeast  Level FlightAware
Mon 09:14:00 AM 29.9373 -83.9869 144° Southeast  Level FlightAware
Mon 09:14:23 AM 30.1089 -84.0500 151° Southeast 170 196 7,000  Level Jacksonville Center
Mon 09:15:00 AM 29.9049 -83.9598 144° Southeast  Level FlightAware
Mon 09:15:23 AM 30.0672 -84.0278 155° Southeast 170 196 6,900  Level Jacksonville Center
Mon 09:16:00 AM 29.8726 -83.9328 144° Southeast  Level FlightAware
Mon 09:16:23 AM 30.0258 -84.0058 155° Southeast 170 196 6,900  Level Jacksonville Center
Mon 09:17:00 AM 29.8377 -83.9102 139° Southeast  Level Estimated
Mon 09:17:23 AM 29.9822 -83.9814 154° Southeast 170 196 6,900  Level Jacksonville Center
Mon 09:18:00 AM 29.8029 -83.8876 151° Southeast  Level Estimated
Mon 09:18:23 AM 29.9383 -83.9617 159° South 170 196 6,900  Level Jacksonville Center
Mon 09:19:23 AM 29.8969 -83.9419 158° South 170 196 6,900 50 Level Jacksonville Center
Mon 09:20:23 AM 29.8572 -83.9200 154° Southeast 165 190 7,000 50 Climbing Jacksonville Center
Mon 09:21:23 AM 29.8117 -83.9003 159° South 170 196 7,000 -50 Level Jacksonville Center
Mon 09:22:23 AM 29.7722 -83.8711 147° Southeast 170 196 6,900 -50 Descending Jacksonville Center
Mon 09:23:23 AM 29.7264 -83.8469 155° Southeast 176 203 6,900  Level Jacksonville Center
Mon 09:24:23 AM 29.6889 -83.8178 146° Southeast 169 194 6,900 50 Level Jacksonville Center
Mon 09:25:23 AM 29.6536 -83.7911 147° Southeast 168 193 7,000  Climbing Jacksonville Center
Mon 09:26:23 AM 29.6081 -83.7669 155° Southeast 168 193 6,900  Descending Jacksonville Center
Mon 09:27:23 AM 29.5686 -83.7403 150° Southeast 174 200 7,000  Climbing Jacksonville Center
Mon 09:28:23 AM 29.5289 -83.7136 150° Southeast 169 194 6,900 -50 Descending Jacksonville Center
Mon 09:29:23 AM 29.4875 -83.6894 153° Southeast 169 194 6,900  Level Jacksonville Center
Mon 09:30:23 AM 29.4478 -83.6628 150° Southeast 169 194 6,900  Level Jacksonville Center
Mon 09:31:23 AM 29.4000 -83.6411 158° South 169 194 6,900  Level Jacksonville Center
Mon 09:32:23 AM 29.3689 -83.6122 141° Southeast 164 189 6,900  Level Jacksonville Center
Mon 09:33:23 AM 29.3189 -83.5881 157° South 172 198 6,900  Level Jacksonville Center
Mon 09:34:23 AM 29.2878 -83.5592 141° Southeast 172 198 6,900  Level Jacksonville Center
Mon 09:35:23 AM 29.2397 -83.5350 156° South 172 198 6,900 50 Level Jacksonville Center
Mon 09:36:23 AM 29.1983 -83.5064 149° Southeast 172 198 7,000 50 Climbing Jacksonville Center
Mon 09:37:23 AM 29.1567 -83.4822 153° Southeast 172 198 7,000  Level Jacksonville Center
Mon 09:38:23 AM 29.1233 -83.4558 145° Southeast 156 180 7,000  Level Jacksonville Center
Mon 09:39:23 AM 29.0775 -83.4272 151° Southeast 161 185 7,000  Level Jacksonville Center
Mon 09:40:23 AM 29.0381 -83.4031 152° Southeast 167 192 7,000  Level Jacksonville Center
Mon 09:41:23 AM 28.9983 -83.3769 150° Southeast 167 192 7,000  Level Jacksonville Center
Mon 09:42:23 AM 28.9589 -83.3506 150° Southeast 167 192 7,000  Level Jacksonville Center
Mon 09:43:23 AM 28.9150 -83.3267 155° Southeast 167 192 7,000  Level Jacksonville Center
Mon 09:44:23 AM 28.8733 -83.3053 156° South 167 192 7,000  Level Jacksonville Center
Mon 09:45:23 AM 28.8317 -83.2764 149° Southeast 167 192 7,000  Level Jacksonville Center
Mon 09:46:23 AM 28.7922 -83.2503 150° Southeast 172 198 7,000  Level Jacksonville Center
Mon 09:47:23 AM 28.7506 -83.2264 153° Southeast 172 198 7,000  Level Jacksonville Center
Mon 09:49:30 AM 28.6667 -83.1667 148° Southeast 167 192 7,000  Level Tampa TRACON
Mon 09:50:30 AM 28.6333 -83.1500 156° South 165 190 7,000  Level Tampa TRACON
Mon 09:51:37 AM 28.5833 -83.1167 150° Southeast 162 186 7,000  Level Tampa TRACON
Mon 09:52:37 AM 28.5500 -83.0833 139° Southeast 162 186 7,000  Level Tampa TRACON
Mon 09:53:36 AM 28.5000 -83.0667 164° South 159 183 7,000  Level Tampa TRACON
Mon 09:54:37 AM 28.4667 -83.0333 139° Southeast 159 183 7,000  Level Tampa TRACON
Mon 09:55:43 AM 28.4333 -83.0167 156° South 160 184 7,000  Level Tampa TRACON
Mon 09:56:49 AM 28.3833 -82.9833 150° Southeast 160 184 7,000  Level Tampa TRACON
Mon 09:57:43 AM 28.3500 -82.9667 156° South 160 184 7,000 -316 Level Tampa TRACON
Mon 09:58:43 AM 28.3167 -82.9333 139° Southeast 165 190 6,400 -550 Descending Tampa TRACON
Mon 09:59:43 AM 28.2833 -82.9000 139° Southeast 167 192 5,900 -600 Descending Tampa TRACON
Mon 10:00:43 AM 28.2333 -82.8667 150° Southeast 170 196 5,200 -750 Descending Tampa TRACON
Mon 10:01:43 AM 28.2000 -82.8500 156° South 164 189 4,400 -857 Descending Tampa TRACON
Mon 10:02:49 AM 28.1500 -82.8333 164° South 165 190 3,400 -895 Descending Tampa TRACON
Mon 10:03:37 AM 28.1167 -82.8167 156° South 163 188 2,700 -875 Descending Tampa TRACON

Login

Don't have an account? Register now (free) for customized features, flight alerts, and more!